首页
METAR-TAF:

METAR-TAF

机场 :

揭阳潮汕国际机场

汕头, 中华人民共和国

纬度: 23-24N, 经度: 116-41E, 海拔: 3米

当前天气观测

该预报发布于29分钟前的02:00 UTC
风速4节,风向西南,在北转西北之间变化
温度 31°C
湿度 71%
气压 1003 hPa
能见度10公里或以上
散云层高于1700英尺
多云层高于4000英尺

METAR: ZGOW 190200Z 23002MPS 170V330 9999 SCT017 BKN040 31/25 Q1003 NOSIG

时间: 10:29 (02:29 UTC)

预报

该预报发布于7小时和15分钟前的19:14 UTC
预报有效从19日的 00点(UTC)到 19日的 24点(UTC)
风速6节,风向南转西南
能見度: 6000
少量云层高于2000英尺
散云层高于5000英尺
短暂存在
从 19日的 04点(UTC)到 19日的 10点(UTC)
风速17节,风向多变,有时为29节阵风
能見度: 2100
散云层高于1100英尺
散云层高于2600英尺, 积雨云.
多云层高于3300英尺
雷暴, 雨

TAF: ZGOW 181914Z 1900/1924 21003MPS 6000 FEW020 SCT050 TX33/1906Z TN26/1922Z TEMPO 1904/1910 VRB09G15MPS 2100 TSRA SCT011 SCT026CB BKN033

超过4000个机场的气象观测和天气预报(METAR&TAF报告)。

可查询的气象台以黄色和红色小点在地图上表示。

将鼠标移到小点上方,可查看气象台名称。

然后点击查看天气观测和预报。

如需切换地图:点击带黑十字的绿色按钮放大地图;点击带横线的绿色按钮缩小地图;或者点击绿色箭头查看邻近地区的地图。


METAR-TAF: